sensor_id;sensor_type;location;lat;lon;timestamp;P1;durP1;ratioP1;P2;durP2;ratioP2
48205;SDS011;33995;48.202;16.260;2023-03-14T00:01:48;6.33;;;4.80;;
48205;SDS011;33995;48.202;16.260;2023-03-14T00:04:15;5.97;;;4.73;;
48205;SDS011;33995;48.202;16.260;2023-03-14T00:06:42;5.57;;;4.90;;
48205;SDS011;33995;48.202;16.260;2023-03-14T00:09:09;5.23;;;4.43;;
48205;SDS011;33995;48.202;16.260;2023-03-14T00:11:36;5.70;;;4.60;;
48205;SDS011;33995;48.202;16.260;2023-03-14T00:14:03;5.60;;;4.57;;
48205;SDS011;33995;48.202;16.260;2023-03-14T00:16:30;5.67;;;4.47;;
48205;SDS011;33995;48.202;16.260;2023-03-14T00:19:00;5.63;;;4.67;;
48205;SDS011;33995;48.202;16.260;2023-03-14T00:21:27;5.37;;;4.53;;
48205;SDS011;33995;48.202;16.260;2023-03-14T00:23:54;5.70;;;4.60;;
48205;SDS011;33995;48.202;16.260;2023-03-14T00:26:21;5.07;;;4.40;;
48205;SDS011;33995;48.202;16.260;2023-03-14T00:28:52;5.17;;;4.67;;
48205;SDS011;33995;48.202;16.260;2023-03-14T00:31:20;5.83;;;4.23;;
48205;SDS011;33995;48.202;16.260;2023-03-14T00:33:47;5.23;;;4.30;;
48205;SDS011;33995;48.202;16.260;2023-03-14T00:36:15;6.70;;;4.80;;
48205;SDS011;33995;48.202;16.260;2023-03-14T00:38:44;4.90;;;4.43;;
48205;SDS011;33995;48.202;16.260;2023-03-14T00:41:14;5.70;;;4.63;;
48205;SDS011;33995;48.202;16.260;2023-03-14T00:43:49;7.10;;;4.70;;
48205;SDS011;33995;48.202;16.260;2023-03-14T00:46:16;5.70;;;5.07;;
48205;SDS011;33995;48.202;16.260;2023-03-14T00:48:44;7.57;;;5.00;;
48205;SDS011;33995;48.202;16.260;2023-03-14T00:51:12;6.50;;;4.77;;
48205;SDS011;33995;48.202;16.260;2023-03-14T00:53:42;6.00;;;5.00;;
48205;SDS011;33995;48.202;16.260;2023-03-14T00:56:10;6.07;;;5.03;;
48205;SDS011;33995;48.202;16.260;2023-03-14T00:58:39;6.03;;;5.27;;
48205;SDS011;33995;48.202;16.260;2023-03-14T01:01:10;5.50;;;4.87;;
48205;SDS011;33995;48.202;16.260;2023-03-14T01:03:42;6.03;;;4.80;;
48205;SDS011;33995;48.202;16.260;2023-03-14T01:06:16;9.63;;;4.83;;
48205;SDS011;33995;48.202;16.260;2023-03-14T01:08:45;6.03;;;4.47;;
48205;SDS011;33995;48.202;16.260;2023-03-14T01:11:14;9.93;;;4.63;;
48205;SDS011;33995;48.202;16.260;2023-03-14T01:13:44;6.77;;;4.63;;
48205;SDS011;33995;48.202;16.260;2023-03-14T01:16:12;6.00;;;4.50;;
48205;SDS011;33995;48.202;16.260;2023-03-14T01:18:41;6.47;;;4.70;;
48205;SDS011;33995;48.202;16.260;2023-03-14T01:21:11;5.67;;;4.57;;
48205;SDS011;33995;48.202;16.260;2023-03-14T01:23:44;6.00;;;5.00;;
48205;SDS011;33995;48.202;16.260;2023-03-14T01:26:12;6.30;;;4.80;;
48205;SDS011;33995;48.202;16.260;2023-03-14T01:28:40;5.10;;;4.60;;
48205;SDS011;33995;48.202;16.260;2023-03-14T01:31:09;7.07;;;4.90;;
48205;SDS011;33995;48.202;16.260;2023-03-14T01:33:37;6.33;;;5.17;;
48205;SDS011;33995;48.202;16.260;2023-03-14T01:36:06;7.10;;;5.00;;
48205;SDS011;33995;48.202;16.260;2023-03-14T01:38:35;7.67;;;5.60;;
48205;SDS011;33995;48.202;16.260;2023-03-14T01:41:06;6.80;;;5.20;;
48205;SDS011;33995;48.202;16.260;2023-03-14T01:43:34;6.60;;;5.73;;
48205;SDS011;33995;48.202;16.260;2023-03-14T01:48:39;7.07;;;5.43;;
48205;SDS011;33995;48.202;16.260;2023-03-14T01:51:19;5.87;;;5.07;;
48205;SDS011;33995;48.202;16.260;2023-03-14T01:53:52;6.00;;;5.37;;
48205;SDS011;33995;48.202;16.260;2023-03-14T01:56:26;6.80;;;5.03;;
48205;SDS011;33995;48.202;16.260;2023-03-14T01:58:53;7.70;;;5.20;;
48205;SDS011;33995;48.202;16.260;2023-03-14T02:01:22;6.30;;;4.80;;
48205;SDS011;33995;48.202;16.260;2023-03-14T02:03:54;8.67;;;4.60;;
48205;SDS011;33995;48.202;16.260;2023-03-14T02:06:26;5.23;;;4.57;;
48205;SDS011;33995;48.202;16.260;2023-03-14T02:09:00;5.60;;;4.00;;
48205;SDS011;33995;48.202;16.260;2023-03-14T02:11:31;6.20;;;4.13;;
48205;SDS011;33995;48.202;16.260;2023-03-14T02:14:03;5.57;;;4.27;;
48205;SDS011;33995;48.202;16.260;2023-03-14T02:16:51;5.97;;;4.23;;
48205;SDS011;33995;48.202;16.260;2023-03-14T02:19:25;5.73;;;4.53;;
48205;SDS011;33995;48.202;16.260;2023-03-14T02:22:20;6.57;;;4.60;;
48205;SDS011;33995;48.202;16.260;2023-03-14T02:27:37;6.27;;;4.37;;
48205;SDS011;33995;48.202;16.260;2023-03-14T02:30:11;5.60;;;4.83;;
48205;SDS011;33995;48.202;16.260;2023-03-14T02:32:45;6.13;;;4.80;;
48205;SDS011;33995;48.202;16.260;2023-03-14T02:35:15;6.67;;;4.73;;
48205;SDS011;33995;48.202;16.260;2023-03-14T02:37:55;6.57;;;5.37;;
48205;SDS011;33995;48.202;16.260;2023-03-14T02:40:49;6.30;;;5.13;;
48205;SDS011;33995;48.202;16.260;2023-03-14T02:43:17;6.53;;;5.07;;
48205;SDS011;33995;48.202;16.260;2023-03-14T02:45:50;6.03;;;4.57;;
48205;SDS011;33995;48.202;16.260;2023-03-14T02:51:21;6.63;;;4.80;;
48205;SDS011;33995;48.202;16.260;2023-03-14T02:53:50;6.43;;;5.20;;
48205;SDS011;33995;48.202;16.260;2023-03-14T02:56:19;5.83;;;4.83;;
48205;SDS011;33995;48.202;16.260;2023-03-14T02:58:46;6.03;;;5.03;;
48205;SDS011;33995;48.202;16.260;2023-03-14T03:01:28;7.53;;;5.10;;
48205;SDS011;33995;48.202;16.260;2023-03-14T03:03:55;6.93;;;4.93;;
48205;SDS011;33995;48.202;16.260;2023-03-14T03:06:22;7.63;;;4.90;;
48205;SDS011;33995;48.202;16.260;2023-03-14T03:08:49;6.20;;;5.33;;
48205;SDS011;33995;48.202;16.260;2023-03-14T03:11:16;5.57;;;5.03;;
48205;SDS011;33995;48.202;16.260;2023-03-14T03:13:44;6.10;;;5.00;;
48205;SDS011;33995;48.202;16.260;2023-03-14T03:16:12;6.70;;;5.37;;
48205;SDS011;33995;48.202;16.260;2023-03-14T03:18:41;7.43;;;5.33;;
48205;SDS011;33995;48.202;16.260;2023-03-14T03:21:08;7.10;;;5.40;;
48205;SDS011;33995;48.202;16.260;2023-03-14T03:23:36;7.33;;;5.83;;
48205;SDS011;33995;48.202;16.260;2023-03-14T03:26:04;6.07;;;4.97;;
48205;SDS011;33995;48.202;16.260;2023-03-14T03:28:32;7.63;;;5.47;;
48205;SDS011;33995;48.202;16.260;2023-03-14T03:31:06;5.53;;;5.00;;
48205;SDS011;33995;48.202;16.260;2023-03-14T03:33:36;8.80;;;5.20;;
48205;SDS011;33995;48.202;16.260;2023-03-14T03:36:03;5.33;;;4.77;;
48205;SDS011;33995;48.202;16.260;2023-03-14T03:38:35;6.00;;;4.73;;
48205;SDS011;33995;48.202;16.260;2023-03-14T03:41:07;5.93;;;4.90;;
48205;SDS011;33995;48.202;16.260;2023-03-14T03:43:34;5.80;;;4.80;;
48205;SDS011;33995;48.202;16.260;2023-03-14T03:46:04;5.23;;;4.70;;
48205;SDS011;33995;48.202;16.260;2023-03-14T03:48:33;5.57;;;4.87;;
48205;SDS011;33995;48.202;16.260;2023-03-14T03:51:03;9.40;;;5.27;;
48205;SDS011;33995;48.202;16.260;2023-03-14T03:53:31;6.40;;;4.97;;
48205;SDS011;33995;48.202;16.260;2023-03-14T03:56:07;5.97;;;4.90;;
48205;SDS011;33995;48.202;16.260;2023-03-14T03:58:35;6.17;;;5.00;;
48205;SDS011;33995;48.202;16.260;2023-03-14T04:01:05;5.97;;;5.33;;
48205;SDS011;33995;48.202;16.260;2023-03-14T04:03:36;7.40;;;5.23;;
48205;SDS011;33995;48.202;16.260;2023-03-14T04:06:10;5.47;;;4.80;;
48205;SDS011;33995;48.202;16.260;2023-03-14T04:08:39;6.33;;;5.50;;
48205;SDS011;33995;48.202;16.260;2023-03-14T04:11:10;7.30;;;5.60;;
48205;SDS011;33995;48.202;16.260;2023-03-14T04:13:53;6.53;;;5.47;;
48205;SDS011;33995;48.202;16.260;2023-03-14T04:16:21;7.03;;;5.30;;
48205;SDS011;33995;48.202;16.260;2023-03-14T04:18:55;6.67;;;5.40;;
48205;SDS011;33995;48.202;16.260;2023-03-14T04:21:23;7.43;;;5.90;;
48205;SDS011;33995;48.202;16.260;2023-03-14T04:23:54;6.40;;;5.80;;
48205;SDS011;33995;48.202;16.260;2023-03-14T04:26:22;6.53;;;5.83;;
48205;SDS011;33995;48.202;16.260;2023-03-14T04:28:49;7.80;;;6.03;;
48205;SDS011;33995;48.202;16.260;2023-03-14T04:31:19;6.70;;;5.67;;
48205;SDS011;33995;48.202;16.260;2023-03-14T04:33:48;6.57;;;5.70;;
48205;SDS011;33995;48.202;16.260;2023-03-14T04:36:21;6.50;;;5.60;;
48205;SDS011;33995;48.202;16.260;2023-03-14T04:38:48;7.23;;;6.00;;
48205;SDS011;33995;48.202;16.260;2023-03-14T04:41:18;7.70;;;5.67;;
48205;SDS011;33995;48.202;16.260;2023-03-14T04:43:46;6.43;;;5.83;;
48205;SDS011;33995;48.202;16.260;2023-03-14T04:46:13;8.17;;;5.77;;
48205;SDS011;33995;48.202;16.260;2023-03-14T04:48:41;7.73;;;5.60;;
48205;SDS011;33995;48.202;16.260;2023-03-14T04:51:08;6.73;;;5.93;;
48205;SDS011;33995;48.202;16.260;2023-03-14T04:53:35;6.40;;;5.80;;
48205;SDS011;33995;48.202;16.260;2023-03-14T04:56:07;5.90;;;5.30;;
48205;SDS011;33995;48.202;16.260;2023-03-14T04:58:43;6.23;;;5.60;;
48205;SDS011;33995;48.202;16.260;2023-03-14T05:01:13;6.47;;;5.60;;
48205;SDS011;33995;48.202;16.260;2023-03-14T05:03:47;6.97;;;5.60;;
48205;SDS011;33995;48.202;16.260;2023-03-14T05:06:24;8.53;;;5.90;;
48205;SDS011;33995;48.202;16.260;2023-03-14T05:09:20;7.20;;;5.50;;
48205;SDS011;33995;48.202;16.260;2023-03-14T05:12:19;6.20;;;5.60;;
48205;SDS011;33995;48.202;16.260;2023-03-14T05:15:10;7.53;;;5.43;;
48205;SDS011;33995;48.202;16.260;2023-03-14T05:18:00;6.10;;;5.27;;
48205;SDS011;33995;48.202;16.260;2023-03-14T05:20:43;6.70;;;5.27;;
48205;SDS011;33995;48.202;16.260;2023-03-14T05:23:28;6.27;;;5.60;;
48205;SDS011;33995;48.202;16.260;2023-03-14T05:26:07;7.33;;;5.30;;
48205;SDS011;33995;48.202;16.260;2023-03-14T05:28:51;5.60;;;5.10;;
48205;SDS011;33995;48.202;16.260;2023-03-14T05:31:33;6.67;;;5.33;;
48205;SDS011;33995;48.202;16.260;2023-03-14T05:34:24;5.20;;;4.70;;
48205;SDS011;33995;48.202;16.260;2023-03-14T05:37:11;6.37;;;4.50;;
48205;SDS011;33995;48.202;16.260;2023-03-14T05:39:52;6.80;;;5.13;;
48205;SDS011;33995;48.202;16.260;2023-03-14T05:42:42;5.70;;;5.10;;
48205;SDS011;33995;48.202;16.260;2023-03-14T05:45:18;5.47;;;4.97;;
48205;SDS011;33995;48.202;16.260;2023-03-14T05:47:55;5.50;;;4.90;;
48205;SDS011;33995;48.202;16.260;2023-03-14T05:50:39;6.53;;;5.10;;
48205;SDS011;33995;48.202;16.260;2023-03-14T05:53:45;5.67;;;5.07;;
48205;SDS011;33995;48.202;16.260;2023-03-14T05:56:32;6.00;;;5.23;;
48205;SDS011;33995;48.202;16.260;2023-03-14T05:59:18;6.67;;;5.77;;
48205;SDS011;33995;48.202;16.260;2023-03-14T06:02:00;9.40;;;7.27;;
48205;SDS011;33995;48.202;16.260;2023-03-14T06:04:36;11.03;;;8.10;;
48205;SDS011;33995;48.202;16.260;2023-03-14T06:07:03;8.17;;;7.23;;
48205;SDS011;33995;48.202;16.260;2023-03-14T06:09:30;9.20;;;7.83;;
48205;SDS011;33995;48.202;16.260;2023-03-14T06:12:00;8.80;;;7.90;;
48205;SDS011;33995;48.202;16.260;2023-03-14T06:14:32;8.73;;;7.83;;
48205;SDS011;33995;48.202;16.260;2023-03-14T06:16:59;10.53;;;6.47;;
48205;SDS011;33995;48.202;16.260;2023-03-14T06:19:31;8.40;;;6.50;;
48205;SDS011;33995;48.202;16.260;2023-03-14T06:21:58;8.80;;;6.90;;
48205;SDS011;33995;48.202;16.260;2023-03-14T06:24:25;9.03;;;6.50;;
48205;SDS011;33995;48.202;16.260;2023-03-14T06:26:53;9.33;;;6.57;;
48205;SDS011;33995;48.202;16.260;2023-03-14T06:29:20;10.70;;;6.90;;
48205;SDS011;33995;48.202;16.260;2023-03-14T06:31:47;7.43;;;6.20;;
48205;SDS011;33995;48.202;16.260;2023-03-14T06:34:16;8.03;;;6.97;;
48205;SDS011;33995;48.202;16.260;2023-03-14T06:36:44;7.43;;;6.73;;
48205;SDS011;33995;48.202;16.260;2023-03-14T06:39:11;7.10;;;6.40;;
48205;SDS011;33995;48.202;16.260;2023-03-14T06:41:42;11.13;;;6.70;;
48205;SDS011;33995;48.202;16.260;2023-03-14T06:44:10;8.47;;;6.40;;
48205;SDS011;33995;48.202;16.260;2023-03-14T06:46:37;7.13;;;5.53;;
48205;SDS011;33995;48.202;16.260;2023-03-14T06:49:04;6.73;;;5.60;;
48205;SDS011;33995;48.202;16.260;2023-03-14T06:51:32;8.37;;;5.67;;
48205;SDS011;33995;48.202;16.260;2023-03-14T06:54:03;8.03;;;5.47;;
48205;SDS011;33995;48.202;16.260;2023-03-14T06:56:30;6.77;;;5.13;;
48205;SDS011;33995;48.202;16.260;2023-03-14T06:58:57;5.77;;;5.10;;
48205;SDS011;33995;48.202;16.260;2023-03-14T07:01:28;7.53;;;5.10;;
48205;SDS011;33995;48.202;16.260;2023-03-14T07:04:03;7.73;;;5.30;;
48205;SDS011;33995;48.202;16.260;2023-03-14T07:06:32;6.90;;;5.27;;
48205;SDS011;33995;48.202;16.260;2023-03-14T07:09:00;7.70;;;5.90;;
48205;SDS011;33995;48.202;16.260;2023-03-14T07:11:29;10.70;;;6.10;;
48205;SDS011;33995;48.202;16.260;2023-03-14T07:13:56;9.67;;;6.43;;
48205;SDS011;33995;48.202;16.260;2023-03-14T07:16:24;8.00;;;6.33;;
48205;SDS011;33995;48.202;16.260;2023-03-14T07:18:55;9.47;;;7.00;;
48205;SDS011;33995;48.202;16.260;2023-03-14T07:21:22;8.27;;;6.03;;
48205;SDS011;33995;48.202;16.260;2023-03-14T07:23:49;7.03;;;5.17;;
48205;SDS011;33995;48.202;16.260;2023-03-14T07:26:17;6.80;;;5.07;;
48205;SDS011;33995;48.202;16.260;2023-03-14T07:28:48;7.50;;;5.10;;
48205;SDS011;33995;48.202;16.260;2023-03-14T07:31:17;4.63;;;3.43;;
48205;SDS011;33995;48.202;16.260;2023-03-14T07:33:45;3.20;;;2.50;;
48205;SDS011;33995;48.202;16.260;2023-03-14T07:36:13;7.07;;;2.10;;
48205;SDS011;33995;48.202;16.260;2023-03-14T07:38:42;3.20;;;1.90;;
48205;SDS011;33995;48.202;16.260;2023-03-14T07:41:28;3.93;;;1.70;;
48205;SDS011;33995;48.202;16.260;2023-03-14T07:44:14;3.33;;;2.70;;
48205;SDS011;33995;48.202;16.260;2023-03-14T07:46:41;4.00;;;3.57;;
48205;SDS011;33995;48.202;16.260;2023-03-14T07:49:08;4.50;;;4.10;;
48205;SDS011;33995;48.202;16.260;2023-03-14T07:51:35;2.03;;;1.80;;
48205;SDS011;33995;48.202;16.260;2023-03-14T07:54:02;4.10;;;3.80;;
48205;SDS011;33995;48.202;16.260;2023-03-14T07:56:30;2.07;;;1.87;;
48205;SDS011;33995;48.202;16.260;2023-03-14T07:58:56;4.30;;;3.97;;
48205;SDS011;33995;48.202;16.260;2023-03-14T08:01:23;4.00;;;3.70;;
48205;SDS011;33995;48.202;16.260;2023-03-14T08:03:50;3.20;;;2.90;;
48205;SDS011;33995;48.202;16.260;2023-03-14T08:06:17;2.87;;;2.63;;
48205;SDS011;33995;48.202;16.260;2023-03-14T08:08:44;3.83;;;3.53;;
48205;SDS011;33995;48.202;16.260;2023-03-14T08:11:12;1.97;;;1.30;;
48205;SDS011;33995;48.202;16.260;2023-03-14T08:13:39;2.60;;;1.17;;
48205;SDS011;33995;48.202;16.260;2023-03-14T08:16:06;1.53;;;1.37;;
48205;SDS011;33995;48.202;16.260;2023-03-14T08:18:33;2.73;;;0.90;;
48205;SDS011;33995;48.202;16.260;2023-03-14T08:21:02;3.03;;;0.63;;
48205;SDS011;33995;48.202;16.260;2023-03-14T08:23:29;1.17;;;0.50;;
48205;SDS011;33995;48.202;16.260;2023-03-14T08:25:56;0.33;;;0.33;;
48205;SDS011;33995;48.202;16.260;2023-03-14T08:28:23;2.30;;;0.50;;
48205;SDS011;33995;48.202;16.260;2023-03-14T08:30:51;2.40;;;2.03;;
48205;SDS011;33995;48.202;16.260;2023-03-14T08:33:21;3.10;;;2.00;;
48205;SDS011;33995;48.202;16.260;2023-03-14T08:35:48;1.30;;;1.20;;
48205;SDS011;33995;48.202;16.260;2023-03-14T08:38:18;1.17;;;1.07;;
48205;SDS011;33995;48.202;16.260;2023-03-14T08:40:45;0.80;;;0.80;;
48205;SDS011;33995;48.202;16.260;2023-03-14T08:43:13;1.77;;;1.50;;
48205;SDS011;33995;48.202;16.260;2023-03-14T08:45:40;1.13;;;1.03;;
48205;SDS011;33995;48.202;16.260;2023-03-14T08:48:06;3.47;;;2.40;;
48205;SDS011;33995;48.202;16.260;2023-03-14T08:50:34;1.73;;;1.30;;
48205;SDS011;33995;48.202;16.260;2023-03-14T08:53:01;2.40;;;0.73;;
48205;SDS011;33995;48.202;16.260;2023-03-14T08:55:29;1.03;;;0.50;;
48205;SDS011;33995;48.202;16.260;2023-03-14T08:57:56;3.33;;;2.30;;
48205;SDS011;33995;48.202;16.260;2023-03-14T09:00:23;6.10;;;5.27;;
48205;SDS011;33995;48.202;16.260;2023-03-14T09:02:50;7.33;;;6.73;;
48205;SDS011;33995;48.202;16.260;2023-03-14T09:05:17;5.07;;;4.67;;
48205;SDS011;33995;48.202;16.260;2023-03-14T09:07:44;10.67;;;9.67;;
48205;SDS011;33995;48.202;16.260;2023-03-14T09:10:11;5.60;;;4.97;;
48205;SDS011;33995;48.202;16.260;2023-03-14T09:12:38;3.00;;;2.73;;
48205;SDS011;33995;48.202;16.260;2023-03-14T09:15:05;2.40;;;2.20;;
48205;SDS011;33995;48.202;16.260;2023-03-14T09:17:33;1.80;;;1.70;;
48205;SDS011;33995;48.202;16.260;2023-03-14T09:20:01;1.30;;;1.20;;
48205;SDS011;33995;48.202;16.260;2023-03-14T09:22:32;2.40;;;1.40;;
48205;SDS011;33995;48.202;16.260;2023-03-14T09:25:04;1.20;;;1.10;;
48205;SDS011;33995;48.202;16.260;2023-03-14T09:27:32;1.20;;;1.10;;
48205;SDS011;33995;48.202;16.260;2023-03-14T09:29:59;3.80;;;1.00;;
48205;SDS011;33995;48.202;16.260;2023-03-14T09:32:26;0.90;;;0.90;;
48205;SDS011;33995;48.202;16.260;2023-03-14T09:34:53;2.87;;;1.20;;
48205;SDS011;33995;48.202;16.260;2023-03-14T09:37:20;0.90;;;0.77;;
48205;SDS011;33995;48.202;16.260;2023-03-14T09:39:47;0.90;;;0.83;;
48205;SDS011;33995;48.202;16.260;2023-03-14T09:42:15;2.43;;;1.30;;
48205;SDS011;33995;48.202;16.260;2023-03-14T09:47:20;2.43;;;1.10;;
48205;SDS011;33995;48.202;16.260;2023-03-14T09:49:49;1.97;;;1.20;;
48205;SDS011;33995;48.202;16.260;2023-03-14T09:54:48;2.07;;;1.30;;
48205;SDS011;33995;48.202;16.260;2023-03-14T09:57:21;4.20;;;1.30;;
48205;SDS011;33995;48.202;16.260;2023-03-14T09:59:51;1.27;;;1.10;;
48205;SDS011;33995;48.202;16.260;2023-03-14T10:02:32;2.47;;;1.13;;
48205;SDS011;33995;48.202;16.260;2023-03-14T10:05:01;2.00;;;1.00;;
48205;SDS011;33995;48.202;16.260;2023-03-14T10:07:40;1.33;;;1.13;;
48205;SDS011;33995;48.202;16.260;2023-03-14T10:10:10;2.20;;;2.00;;
48205;SDS011;33995;48.202;16.260;2023-03-14T10:12:54;3.23;;;2.93;;
48205;SDS011;33995;48.202;16.260;2023-03-14T10:15:32;3.83;;;3.40;;
48205;SDS011;33995;48.202;16.260;2023-03-14T10:18:01;3.60;;;2.70;;
48205;SDS011;33995;48.202;16.260;2023-03-14T10:20:39;4.23;;;3.10;;
48205;SDS011;33995;48.202;16.260;2023-03-14T10:25:40;3.40;;;2.43;;
48205;SDS011;33995;48.202;16.260;2023-03-14T10:28:31;3.00;;;1.50;;
48205;SDS011;33995;48.202;16.260;2023-03-14T10:30:59;1.77;;;1.10;;
48205;SDS011;33995;48.202;16.260;2023-03-14T10:33:29;1.30;;;1.00;;
48205;SDS011;33995;48.202;16.260;2023-03-14T10:36:02;2.30;;;1.40;;
48205;SDS011;33995;48.202;16.260;2023-03-14T10:38:50;1.60;;;1.50;;
48205;SDS011;33995;48.202;16.260;2023-03-14T10:41:25;6.33;;;1.90;;
48205;SDS011;33995;48.202;16.260;2023-03-14T10:43:54;2.50;;;1.50;;
48205;SDS011;33995;48.202;16.260;2023-03-14T10:46:26;1.83;;;1.30;;
48205;SDS011;33995;48.202;16.260;2023-03-14T10:49:29;2.70;;;1.70;;
48205;SDS011;33995;48.202;16.260;2023-03-14T10:52:01;3.20;;;2.40;;
48205;SDS011;33995;48.202;16.260;2023-03-14T10:54:40;3.87;;;3.57;;
48205;SDS011;33995;48.202;16.260;2023-03-14T10:57:07;2.60;;;2.40;;
48205;SDS011;33995;48.202;16.260;2023-03-14T10:59:39;2.60;;;1.50;;
48205;SDS011;33995;48.202;16.260;2023-03-14T11:05:17;1.63;;;1.53;;
48205;SDS011;33995;48.202;16.260;2023-03-14T11:07:46;3.40;;;3.10;;
48205;SDS011;33995;48.202;16.260;2023-03-14T11:21:13;1.73;;;1.40;;
48205;SDS011;33995;48.202;16.260;2023-03-14T11:24:12;2.07;;;1.50;;
48205;SDS011;33995;48.202;16.260;2023-03-14T11:29:54;1.53;;;0.90;;
48205;SDS011;33995;48.202;16.260;2023-03-14T11:35:12;2.43;;;1.67;;
48205;SDS011;33995;48.202;16.260;2023-03-14T11:37:46;3.57;;;1.00;;
48205;SDS011;33995;48.202;16.260;2023-03-14T11:40:20;2.00;;;1.60;;
48205;SDS011;33995;48.202;16.260;2023-03-14T11:42:59;3.40;;;1.30;;
48205;SDS011;33995;48.202;16.260;2023-03-14T11:45:32;2.07;;;1.10;;
48205;SDS011;33995;48.202;16.260;2023-03-14T11:50:49;1.50;;;1.20;;
48205;SDS011;33995;48.202;16.260;2023-03-14T11:53:23;1.43;;;1.03;;
48205;SDS011;33995;48.202;16.260;2023-03-14T11:55:55;2.03;;;0.80;;
48205;SDS011;33995;48.202;16.260;2023-03-14T12:00:53;1.20;;;1.00;;
48205;SDS011;33995;48.202;16.260;2023-03-14T12:06:33;2.13;;;0.83;;
48205;SDS011;33995;48.202;16.260;2023-03-14T12:09:22;1.63;;;1.00;;
48205;SDS011;33995;48.202;16.260;2023-03-14T12:11:51;0.70;;;0.70;;
48205;SDS011;33995;48.202;16.260;2023-03-14T12:14:30;1.70;;;1.37;;
48205;SDS011;33995;48.202;16.260;2023-03-14T12:19:39;6.17;;;4.93;;
48205;SDS011;33995;48.202;16.260;2023-03-14T12:22:08;4.80;;;4.30;;
48205;SDS011;33995;48.202;16.260;2023-03-14T12:24:57;5.90;;;5.40;;
48205;SDS011;33995;48.202;16.260;2023-03-14T12:32:43;2.93;;;2.70;;
48205;SDS011;33995;48.202;16.260;2023-03-14T12:35:57;1.83;;;1.73;;
48205;SDS011;33995;48.202;16.260;2023-03-14T12:43:49;2.10;;;1.67;;
48205;SDS011;33995;48.202;16.260;2023-03-14T12:48:54;3.60;;;1.93;;
48205;SDS011;33995;48.202;16.260;2023-03-14T12:51:29;1.50;;;1.40;;
48205;SDS011;33995;48.202;16.260;2023-03-14T13:00:02;1.43;;;1.33;;
48205;SDS011;33995;48.202;16.260;2023-03-14T13:02:44;1.97;;;0.97;;
48205;SDS011;33995;48.202;16.260;2023-03-14T13:05:16;1.50;;;0.70;;
48205;SDS011;33995;48.202;16.260;2023-03-14T13:10:17;1.90;;;0.70;;
48205;SDS011;33995;48.202;16.260;2023-03-14T13:13:21;3.50;;;0.60;;
48205;SDS011;33995;48.202;16.260;2023-03-14T13:15:54;1.67;;;0.60;;
48205;SDS011;33995;48.202;16.260;2023-03-14T13:18:29;0.57;;;0.53;;
48205;SDS011;33995;48.202;16.260;2023-03-14T13:21:11;0.80;;;0.63;;
48205;SDS011;33995;48.202;16.260;2023-03-14T13:23:54;1.20;;;0.70;;
48205;SDS011;33995;48.202;16.260;2023-03-14T13:26:32;2.83;;;0.83;;
48205;SDS011;33995;48.202;16.260;2023-03-14T13:29:14;1.77;;;1.00;;
48205;SDS011;33995;48.202;16.260;2023-03-14T13:31:55;1.10;;;1.00;;
48205;SDS011;33995;48.202;16.260;2023-03-14T13:34:30;1.17;;;0.97;;
48205;SDS011;33995;48.202;16.260;2023-03-14T13:36:59;0.80;;;0.50;;
48205;SDS011;33995;48.202;16.260;2023-03-14T13:39:28;1.43;;;0.60;;
48205;SDS011;33995;48.202;16.260;2023-03-14T13:41:59;1.10;;;0.60;;
48205;SDS011;33995;48.202;16.260;2023-03-14T13:44:28;1.83;;;0.77;;
48205;SDS011;33995;48.202;16.260;2023-03-14T13:47:05;2.23;;;1.10;;
48205;SDS011;33995;48.202;16.260;2023-03-14T13:49:39;1.67;;;1.23;;
48205;SDS011;33995;48.202;16.260;2023-03-14T13:54:57;2.20;;;1.37;;
48205;SDS011;33995;48.202;16.260;2023-03-14T13:57:26;1.73;;;1.63;;
48205;SDS011;33995;48.202;16.260;2023-03-14T14:00:04;2.37;;;2.17;;
48205;SDS011;33995;48.202;16.260;2023-03-14T14:02:33;2.27;;;1.50;;
48205;SDS011;33995;48.202;16.260;2023-03-14T14:05:03;2.53;;;1.80;;
48205;SDS011;33995;48.202;16.260;2023-03-14T14:07:31;2.13;;;1.50;;
48205;SDS011;33995;48.202;16.260;2023-03-14T14:09:58;4.37;;;2.33;;
48205;SDS011;33995;48.202;16.260;2023-03-14T14:12:47;2.57;;;1.97;;
48205;SDS011;33995;48.202;16.260;2023-03-14T14:15:31;1.90;;;1.80;;
48205;SDS011;33995;48.202;16.260;2023-03-14T14:18:04;2.63;;;1.87;;
48205;SDS011;33995;48.202;16.260;2023-03-14T14:23:09;2.53;;;1.27;;
48205;SDS011;33995;48.202;16.260;2023-03-14T14:25:39;1.27;;;0.77;;
48205;SDS011;33995;48.202;16.260;2023-03-14T14:28:27;2.30;;;1.20;;
48205;SDS011;33995;48.202;16.260;2023-03-14T14:31:38;2.03;;;0.80;;
48205;SDS011;33995;48.202;16.260;2023-03-14T14:36:25;2.90;;;2.60;;
48205;SDS011;33995;48.202;16.260;2023-03-14T14:41:29;1.90;;;1.30;;
48205;SDS011;33995;48.202;16.260;2023-03-14T14:43:59;1.50;;;1.40;;
48205;SDS011;33995;48.202;16.260;2023-03-14T14:46:28;2.03;;;1.40;;
48205;SDS011;33995;48.202;16.260;2023-03-14T14:49:01;1.27;;;1.17;;
48205;SDS011;33995;48.202;16.260;2023-03-14T14:51:34;1.97;;;1.40;;
48205;SDS011;33995;48.202;16.260;2023-03-14T14:56:46;4.77;;;0.80;;
48205;SDS011;33995;48.202;16.260;2023-03-14T14:59:22;3.63;;;1.50;;
48205;SDS011;33995;48.202;16.260;2023-03-14T15:01:54;2.40;;;1.47;;
48205;SDS011;33995;48.202;16.260;2023-03-14T15:04:23;1.90;;;1.20;;
48205;SDS011;33995;48.202;16.260;2023-03-14T15:06:51;3.03;;;1.27;;
48205;SDS011;33995;48.202;16.260;2023-03-14T15:09:19;1.77;;;0.97;;
48205;SDS011;33995;48.202;16.260;2023-03-14T15:11:47;2.63;;;1.30;;
48205;SDS011;33995;48.202;16.260;2023-03-14T15:14:14;0.70;;;0.63;;
48205;SDS011;33995;48.202;16.260;2023-03-14T15:16:41;1.03;;;0.60;;
48205;SDS011;33995;48.202;16.260;2023-03-14T15:19:10;1.20;;;0.80;;
48205;SDS011;33995;48.202;16.260;2023-03-14T15:21:51;0.93;;;0.80;;
48205;SDS011;33995;48.202;16.260;2023-03-14T15:24:19;0.90;;;0.90;;
48205;SDS011;33995;48.202;16.260;2023-03-14T15:26:46;0.97;;;0.67;;
48205;SDS011;33995;48.202;16.260;2023-03-14T15:29:14;0.63;;;0.57;;
48205;SDS011;33995;48.202;16.260;2023-03-14T15:31:41;1.23;;;0.70;;
48205;SDS011;33995;48.202;16.260;2023-03-14T15:34:10;1.83;;;1.00;;
48205;SDS011;33995;48.202;16.260;2023-03-14T15:36:37;1.20;;;1.10;;
48205;SDS011;33995;48.202;16.260;2023-03-14T15:39:05;2.63;;;1.20;;
48205;SDS011;33995;48.202;16.260;2023-03-14T15:41:33;3.40;;;1.30;;
48205;SDS011;33995;48.202;16.260;2023-03-14T15:44:00;1.90;;;1.40;;
48205;SDS011;33995;48.202;16.260;2023-03-14T15:46:27;2.10;;;1.37;;
48205;SDS011;33995;48.202;16.260;2023-03-14T15:48:56;1.83;;;1.60;;
48205;SDS011;33995;48.202;16.260;2023-03-14T15:51:23;2.53;;;1.90;;
48205;SDS011;33995;48.202;16.260;2023-03-14T15:53:51;2.00;;;1.80;;
48205;SDS011;33995;48.202;16.260;2023-03-14T15:56:19;2.07;;;1.83;;
48205;SDS011;33995;48.202;16.260;2023-03-14T15:58:47;2.47;;;1.67;;
48205;SDS011;33995;48.202;16.260;2023-03-14T16:01:14;2.50;;;2.30;;
48205;SDS011;33995;48.202;16.260;2023-03-14T16:03:43;2.97;;;2.10;;
48205;SDS011;33995;48.202;16.260;2023-03-14T16:06:11;3.27;;;2.80;;
48205;SDS011;33995;48.202;16.260;2023-03-14T16:08:39;7.17;;;5.67;;
48205;SDS011;33995;48.202;16.260;2023-03-14T16:11:08;7.80;;;6.40;;
48205;SDS011;33995;48.202;16.260;2023-03-14T16:13:38;7.37;;;5.83;;
48205;SDS011;33995;48.202;16.260;2023-03-14T16:16:06;5.20;;;4.70;;
48205;SDS011;33995;48.202;16.260;2023-03-14T16:18:35;5.53;;;4.50;;
48205;SDS011;33995;48.202;16.260;2023-03-14T16:21:05;5.00;;;3.90;;
48205;SDS011;33995;48.202;16.260;2023-03-14T16:23:39;3.93;;;2.97;;